Las Palmas de Gran Canaria, Canary Islands

9:03 AM WEST en Septiembre 21, 2014 (GMT +0100)
Gran Canaria | Change Station
CLOSE
Current Station
Estación meteorológica personal
Location: Gran Canaria, Canary Islands
Altura: 30 ft
Estaciones meteorológicas cercanas

Alt 30 ft 28.00 °N, 15.37 °W | Updated 4 seconds ago

Partly Cloudy
Parcialmente nublado
72.2 ° F
Sensación térmica 73 ° F
N
3.5
Viento Variable Viento desde NO
Gusts 3.5 mph

Hoy
Alta -- | Baja -- ° F
--% Posibilidad de precipitaciones
Ayer
Alta -- | Baja -- ° F
Precip. -- pul
7:49 AM 7:59 PM
Creciente menguante, 8% visible
Presión 30.01 pul
Visibilidad 6.2 Millas
Nubes Baja 2200 ft
Índice de calor 73 ° F
Punto de rocío 65 ° F
Humedad 77%
Precipitaciones 0.00 pul
Espesor de la nieve No disponible.
UV 0 de una escala de 12
Polen No disponible.
Calidad del aire No disponible.
Flu Activity No disponible.
METAR GCLP 210730Z 31006KT 9999 FEW022 22/17 Q1016 NOSIG

More Conditions Fewer Conditions

Presión 30.01 pul
Visibilidad 6.2 Millas
Nubes Baja 2200 ft
Índice de calor 73 ° F
Punto de rocío 65 ° F
Humedad 77%
Precipitaciones 0.00 pul
Espesor de la nieve No disponible.
UV 0 de una escala de 12
Polen No disponible.
Calidad del aire No disponible.
Flu Activity No disponible.
METAR GCLP 210730Z 31006KT 9999 FEW022 22/17 Q1016 NOSIG

More Conditions Fewer Conditions

10-Day Weather Forecast

Almanac

Astronomía

Sep. 21, 2014 Salida Puesta
Hora real 7:49 AM WEST 7:59 PM WEST
Crepúsculo civil 7:26 AM WEST 8:22 PM WEST
Crepúsculo náutico 6:58 AM WEST 8:50 PM WEST
Crepúsculo astronómico 6:31 AM WEST 9:17 PM WEST
Luna 5:22 AM WEST 6:20 PM WEST
Horas de luz 12h 56m
Horas de luz
12h 09m
Tomorrow will be 1m 39s shorter.
Creciente menguante, 8% of the Moon is Illuminated
Hoy
Creciente menguante
Sep 24
Nueva
Oct 1
Cuarto creciente
Oct 8
Luna llena
Oct 15
Cuarto menguante

Extremos de ayer

Máximos del país Bajas del país

Community

WunderPhotos

Upload Photos

1,755,101 ¡fotos cargadas!

Nearby

Calidad del aire

Not available.

Grosos de nieve

Not available.

Actividad de terremotos

Ciudad Distance Mag. Tiempo y dato
No hay informes recientes de la actividad sísmica.
Magnitud mínima muestra es 2,5.

Temperaturas de aguas costeras

Lugar Temperatura
Sin partes meteorológicos de las estaciones

Estaciones meteorológicas cercanas